createdAt,value
2023-01-11T00:01:23.692Z,2.23
2023-01-11T00:03:51.536Z,1.97
2023-01-11T00:06:18.031Z,2.83
2023-01-11T00:08:44.542Z,4.30
2023-01-11T00:11:14.173Z,2.20
2023-01-11T00:13:40.775Z,1.43
2023-01-11T00:16:08.217Z,4.37
2023-01-11T00:18:35.641Z,2.60
2023-01-11T00:21:03.878Z,2.87
2023-01-11T00:23:30.397Z,2.63
2023-01-11T00:25:56.899Z,2.27
2023-01-11T00:28:23.431Z,3.23
2023-01-11T00:30:49.966Z,2.37
2023-01-11T00:33:16.442Z,3.87
2023-01-11T00:35:42.985Z,2.73
2023-01-11T00:38:10.865Z,2.20
2023-01-11T00:40:37.412Z,3.70
2023-01-11T00:43:03.926Z,3.80
2023-01-11T00:45:30.619Z,2.57
2023-01-11T00:47:57.173Z,2.00
2023-01-11T00:50:24.304Z,1.57
2023-01-11T00:52:50.865Z,1.23
2023-01-11T00:55:19.127Z,2.07
2023-01-11T00:57:45.657Z,1.70
2023-01-11T01:00:13.347Z,3.50
2023-01-11T01:02:39.991Z,2.67
2023-01-11T01:05:07.049Z,1.63
2023-01-11T01:07:33.730Z,2.17
2023-01-11T01:10:00.244Z,2.23
2023-01-11T01:12:28.152Z,2.80
2023-01-11T01:14:54.616Z,1.67
2023-01-11T01:17:21.142Z,1.80
2023-01-11T01:19:47.624Z,1.40
2023-01-11T01:22:14.351Z,3.83
2023-01-11T01:24:40.870Z,1.60
2023-01-11T01:27:07.382Z,1.77
2023-01-11T01:29:35.280Z,2.23
2023-01-11T01:32:01.840Z,2.37
2023-01-11T01:34:28.601Z,2.07
2023-01-11T01:36:55.095Z,2.33
2023-01-11T01:39:21.624Z,1.43
2023-01-11T01:41:48.105Z,2.37
2023-01-11T01:44:56.376Z,2.27
2023-01-11T01:47:27.363Z,1.40
2023-01-11T01:49:54.437Z,1.53
2023-01-11T01:52:21.538Z,1.77
2023-01-11T01:54:49.354Z,1.73
2023-01-11T01:57:20.241Z,1.20
2023-01-11T01:59:48.327Z,2.17
2023-01-11T02:02:16.216Z,1.40
2023-01-11T02:04:46.711Z,0.80
2023-01-11T02:07:16.041Z,1.97
2023-01-11T02:09:47.019Z,1.90
2023-01-11T02:12:15.132Z,1.93
2023-01-11T02:14:42.856Z,1.83
2023-01-11T02:17:09.991Z,1.27
2023-01-11T02:19:53.434Z,1.57
2023-01-11T02:22:53.746Z,1.13
2023-01-11T02:25:59.089Z,2.13
2023-01-11T02:28:33.477Z,1.20
2023-01-11T02:31:06.603Z,2.00
2023-01-11T02:33:40.697Z,1.80
2023-01-11T02:36:17.052Z,1.87
2023-01-11T02:38:49.644Z,2.00
2023-01-11T02:41:22.475Z,1.47
2023-01-11T02:43:59.558Z,1.63
2023-01-11T02:46:32.491Z,1.73
2023-01-11T02:49:05.505Z,2.17
2023-01-11T02:51:38.263Z,1.70
2023-01-11T02:54:08.330Z,1.17
2023-01-11T02:56:38.855Z,1.73
2023-01-11T02:59:10.768Z,1.77
2023-01-11T03:01:44.503Z,2.30
2023-01-11T03:04:27.084Z,1.43
2023-01-11T03:07:05.965Z,1.47
2023-01-11T03:09:40.056Z,1.53
2023-01-11T03:12:23.648Z,1.13
2023-01-11T03:15:03.073Z,1.10
2023-01-11T03:17:45.217Z,1.53
2023-01-11T03:20:20.512Z,1.13
2023-01-11T03:22:59.880Z,1.07
2023-01-11T03:25:36.081Z,1.30
2023-01-11T03:28:09.565Z,1.40
2023-01-11T03:30:45.434Z,1.13
2023-01-11T03:33:18.537Z,1.20
2023-01-11T03:35:48.485Z,1.27
2023-01-11T03:38:21.852Z,1.23
2023-01-11T03:40:52.991Z,1.07
2023-01-11T03:43:23.197Z,1.13
2023-01-11T03:45:54.622Z,1.23
2023-01-11T03:48:26.065Z,1.40
2023-01-11T03:50:55.536Z,1.30
2023-01-11T03:53:25.419Z,1.37
2023-01-11T03:55:56.587Z,2.40
2023-01-11T03:58:24.934Z,2.07
2023-01-11T04:00:54.280Z,3.27
2023-01-11T04:03:20.876Z,0.80
2023-01-11T04:05:52.157Z,0.97
2023-01-11T04:08:18.731Z,1.97
2023-01-11T04:10:45.555Z,1.77
2023-01-11T04:13:12.045Z,1.97
2023-01-11T04:15:38.559Z,2.10
2023-01-11T04:18:06.767Z,1.17
2023-01-11T04:20:33.956Z,1.57
2023-01-11T04:23:00.540Z,0.87
2023-01-11T04:25:27.103Z,1.97
2023-01-11T04:27:53.873Z,2.37
2023-01-11T04:30:20.587Z,2.23
2023-01-11T04:32:47.266Z,3.37
2023-01-11T04:35:15.270Z,3.03
2023-01-11T04:37:41.831Z,1.83
2023-01-11T04:40:09.691Z,2.10
2023-01-11T04:42:36.331Z,2.03
2023-01-11T04:45:03.175Z,1.30
2023-01-11T04:47:29.675Z,2.67
2023-01-11T04:49:56.196Z,1.57
2023-01-11T04:52:24.120Z,2.00
2023-01-11T04:54:50.655Z,1.40
2023-01-11T04:57:17.224Z,1.20
2023-01-11T04:59:43.735Z,1.37
2023-01-11T05:02:10.244Z,1.10
2023-01-11T05:04:36.821Z,2.23
2023-01-11T05:07:03.333Z,1.20
2023-01-11T05:09:31.390Z,1.43
2023-01-11T05:11:57.896Z,1.13
2023-01-11T05:14:24.418Z,1.33
2023-01-11T05:16:51.347Z,1.67
2023-01-11T05:19:18.653Z,1.40
2023-01-11T05:21:45.211Z,1.77
2023-01-11T05:24:13.193Z,1.00
2023-01-11T05:26:42.973Z,2.10
2023-01-11T05:29:11.771Z,1.30
2023-01-11T05:31:40.221Z,0.90
2023-01-11T05:34:07.526Z,1.20
2023-01-11T05:36:35.286Z,1.00
2023-01-11T05:39:02.072Z,2.20
2023-01-11T05:41:28.623Z,1.40
2023-01-11T05:43:56.527Z,1.90
2023-01-11T05:46:23.339Z,1.43
2023-01-11T05:48:50.038Z,1.30
2023-01-11T05:51:16.762Z,1.00
2023-01-11T05:53:43.308Z,1.20
2023-01-11T05:56:09.822Z,0.97
2023-01-11T05:58:36.383Z,1.07
2023-01-11T06:01:04.527Z,1.23
2023-01-11T06:03:31.101Z,1.23
2023-01-11T06:05:59.304Z,1.33
2023-01-11T06:08:26.158Z,2.10
2023-01-11T06:10:54.080Z,1.37
2023-01-11T06:13:21.633Z,0.70
2023-01-11T06:15:48.167Z,1.93
2023-01-11T06:18:16.163Z,1.23
2023-01-11T06:20:42.664Z,0.87
2023-01-11T06:23:09.362Z,0.67
2023-01-11T06:25:35.972Z,0.90
2023-01-11T06:28:02.685Z,0.97
2023-01-11T06:30:29.289Z,0.83
2023-01-11T06:32:55.860Z,0.70
2023-01-11T06:35:23.752Z,1.13
2023-01-11T06:37:50.308Z,1.00
2023-01-11T06:40:17.078Z,0.67
2023-01-11T06:42:43.581Z,1.00
2023-01-11T06:45:11.515Z,1.00
2023-01-11T06:47:37.984Z,1.00
2023-01-11T06:50:05.219Z,1.17
2023-01-11T06:52:33.070Z,1.43
2023-01-11T06:54:59.567Z,1.10
2023-01-11T06:57:26.075Z,1.00
2023-01-11T06:59:52.545Z,0.80
2023-01-11T07:02:19.119Z,1.10
2023-01-11T07:04:45.671Z,1.17
2023-01-11T07:07:12.216Z,0.70
2023-01-11T07:09:40.153Z,1.00
2023-01-11T07:12:06.889Z,1.00
2023-01-11T07:14:33.422Z,0.50
2023-01-11T07:16:59.952Z,0.67
2023-01-11T07:19:26.431Z,0.90
2023-01-11T07:21:52.952Z,0.60
2023-01-11T07:24:19.669Z,1.20
2023-01-11T07:26:47.514Z,0.80
2023-01-11T07:29:14.035Z,1.20
2023-01-11T07:31:40.598Z,2.20
2023-01-11T07:34:07.138Z,1.70
2023-01-11T07:36:33.626Z,3.10
2023-01-11T07:39:00.125Z,1.60
2023-01-11T07:41:26.622Z,1.43
2023-01-11T07:43:54.695Z,1.40
2023-01-11T07:46:21.403Z,1.43
2023-01-11T07:48:47.983Z,0.77
2023-01-11T07:51:14.487Z,2.07
2023-01-11T07:53:40.995Z,2.30
2023-01-11T07:56:07.662Z,5.37
2023-01-11T07:58:34.208Z,4.00
2023-01-11T08:01:02.068Z,3.20
2023-01-11T08:03:28.708Z,2.07
2023-01-11T08:05:55.252Z,1.73
2023-01-11T08:08:22.040Z,1.50
2023-01-11T08:10:48.799Z,1.97
2023-01-11T08:13:15.514Z,1.07
2023-01-11T08:15:42.093Z,0.80
2023-01-11T08:18:10.409Z,1.43
2023-01-11T08:20:37.030Z,1.37
2023-01-11T08:23:04.301Z,0.90
2023-01-11T08:25:30.894Z,0.77
2023-01-11T08:27:59.638Z,1.00
2023-01-11T08:30:26.177Z,1.47
2023-01-11T08:32:52.652Z,1.00
2023-01-11T08:35:20.548Z,1.03
2023-01-11T08:37:47.037Z,1.00
2023-01-11T08:40:13.973Z,2.03
2023-01-11T08:42:40.479Z,1.10
2023-01-11T08:45:07.919Z,2.23
2023-01-11T08:47:34.441Z,1.00
2023-01-11T08:50:00.936Z,1.07
2023-01-11T08:52:28.778Z,2.13
2023-01-11T08:54:55.277Z,0.90
2023-01-11T08:57:21.827Z,1.10
2023-01-11T08:59:48.364Z,1.80
2023-01-11T09:02:14.881Z,0.73
2023-01-11T09:04:41.819Z,1.47
2023-01-11T09:07:08.346Z,1.53
2023-01-11T09:09:36.203Z,0.80
2023-01-11T09:12:05.483Z,1.17
2023-01-11T09:14:32.287Z,2.07
2023-01-11T09:16:59.132Z,0.90
2023-01-11T09:19:25.668Z,0.80
2023-01-11T09:21:52.626Z,1.00
2023-01-11T09:26:56.990Z,1.80
2023-01-11T09:29:23.676Z,7.00
2023-01-11T09:31:50.323Z,4.97
2023-01-11T09:34:16.901Z,9.77
2023-01-11T09:36:43.397Z,10.53
2023-01-11T09:39:11.049Z,10.37
2023-01-11T09:41:53.353Z,5.27
2023-01-11T09:44:22.018Z,1.80
2023-01-11T09:46:54.389Z,2.50
2023-01-11T09:49:25.332Z,1.30
2023-01-11T09:51:55.464Z,3.23
2023-01-11T09:54:26.913Z,1.00
2023-01-11T09:57:06.139Z,1.10
2023-01-11T09:59:43.955Z,1.33
2023-01-11T10:02:21.402Z,0.70
2023-01-11T10:05:02.409Z,0.70
2023-01-11T10:07:40.696Z,2.00
2023-01-11T10:18:26.286Z,1.50
2023-01-11T10:19:36.581Z,2.03
2023-01-11T10:22:08.163Z,1.80
2023-01-11T10:24:37.865Z,2.20
2023-01-11T10:27:12.234Z,1.50
2023-01-11T10:29:44.443Z,1.63
2023-01-11T10:32:17.914Z,1.10
2023-01-11T10:34:45.733Z,1.50
2023-01-11T10:37:15.421Z,0.90
2023-01-11T10:39:47.926Z,0.93
2023-01-11T10:42:19.559Z,0.90
2023-01-11T10:44:57.053Z,0.73
2023-01-11T10:47:29.341Z,1.20
2023-01-11T10:49:59.910Z,1.03
2023-01-11T10:52:34.536Z,0.80
2023-01-11T10:55:10.381Z,0.97
2023-01-11T10:57:59.843Z,1.20
2023-01-11T11:00:33.942Z,1.57
2023-01-11T11:03:21.956Z,1.20
2023-01-11T11:05:54.917Z,0.80
2023-01-11T11:08:29.166Z,0.60
2023-01-11T11:11:00.912Z,1.10
2023-01-11T11:13:43.293Z,0.60
2023-01-11T11:16:20.132Z,0.50
2023-01-11T11:18:48.844Z,0.60
2023-01-11T11:21:21.699Z,0.60
2023-01-11T11:23:55.385Z,0.50
2023-01-11T11:26:26.253Z,1.10
2023-01-11T11:29:00.500Z,1.13
2023-01-11T11:31:28.387Z,0.40
2023-01-11T11:33:56.700Z,0.50
2023-01-11T11:36:24.875Z,0.77
2023-01-11T11:39:03.302Z,0.97
2023-01-11T11:41:29.820Z,0.50
2023-01-11T11:44:16.203Z,0.50
2023-01-11T11:46:56.456Z,0.77
2023-01-11T11:49:24.587Z,0.70
2023-01-11T11:51:52.373Z,0.63
2023-01-11T11:54:22.002Z,1.20
2023-01-11T11:56:49.481Z,1.10
2023-01-11T11:59:19.078Z,0.40
2023-01-11T12:01:48.076Z,0.47
2023-01-11T12:04:17.914Z,0.50
2023-01-11T12:06:49.472Z,0.50
2023-01-11T12:09:27.750Z,0.50
2023-01-11T12:11:54.508Z,0.70
2023-01-11T12:14:27.526Z,1.17
2023-01-11T12:16:54.062Z,0.70
2023-01-11T12:19:33.295Z,1.23
2023-01-11T12:22:23.152Z,0.70
2023-01-11T12:25:05.714Z,1.60
2023-01-11T12:27:40.522Z,1.60
2023-01-11T12:30:20.131Z,1.33
2023-01-11T12:33:09.797Z,0.80
2023-01-11T12:35:47.826Z,1.10
2023-01-11T12:38:39.433Z,0.80
2023-01-11T12:41:22.296Z,0.87
2023-01-11T12:44:02.115Z,5.97
2023-01-11T12:46:43.006Z,5.90
2023-01-11T12:49:20.706Z,14.53
2023-01-11T12:52:11.888Z,15.87
2023-01-11T12:54:54.726Z,17.30
2023-01-11T12:57:26.928Z,16.77
2023-01-11T13:00:32.236Z,17.70
2023-01-11T13:03:22.184Z,17.20
2023-01-11T13:05:59.692Z,15.40
2023-01-11T13:08:37.161Z,16.20
2023-01-11T13:11:16.974Z,11.03
2023-01-11T13:13:53.385Z,8.67
2023-01-11T13:16:25.848Z,10.60
2023-01-11T13:18:59.659Z,5.47
2023-01-11T13:21:32.329Z,3.40
2023-01-11T13:24:03.379Z,4.27
2023-01-11T13:26:35.649Z,5.10
2023-01-11T13:29:06.350Z,7.07
2023-01-11T13:31:34.685Z,9.27
2023-01-11T13:34:05.230Z,6.07
2023-01-11T13:36:40.305Z,3.20
2023-01-11T13:39:11.821Z,1.97
2023-01-11T13:41:42.664Z,1.50
2023-01-11T13:44:15.074Z,1.37
2023-01-11T13:46:55.968Z,1.40
2023-01-11T13:49:56.046Z,1.83
2023-01-11T13:52:41.907Z,2.10
2023-01-11T13:55:20.974Z,1.30
2023-01-11T13:57:57.578Z,1.10
2023-01-11T14:00:30.753Z,0.70
2023-01-11T14:03:03.224Z,0.60
2023-01-11T14:05:36.004Z,0.80
2023-01-11T14:08:19.369Z,0.80
2023-01-11T14:10:55.967Z,0.50
2023-01-11T14:14:07.164Z,0.93
2023-01-11T14:16:44.732Z,0.53
2023-01-11T14:19:20.814Z,0.70
2023-01-11T14:22:00.929Z,0.60
2023-01-11T14:24:31.927Z,0.60
2023-01-11T14:27:14.759Z,0.87
2023-01-11T14:29:59.175Z,1.20
2023-01-11T14:32:44.316Z,1.40
2023-01-11T14:35:38.207Z,1.60
2023-01-11T14:38:27.989Z,1.83
2023-01-11T14:41:14.420Z,4.93
2023-01-11T14:44:11.160Z,3.97
2023-01-11T14:47:15.937Z,3.10
2023-01-11T14:49:57.963Z,2.13
2023-01-11T14:52:38.922Z,2.40
2023-01-11T14:55:15.360Z,2.47
2023-01-11T14:57:43.309Z,1.60
2023-01-11T15:00:49.579Z,2.10
2023-01-11T15:03:34.727Z,5.63
2023-01-11T15:06:12.023Z,6.17
2023-01-11T15:08:42.844Z,5.67
2023-01-11T15:11:23.217Z,4.10
2023-01-11T15:13:56.329Z,5.20
2023-01-11T15:16:25.284Z,5.20
2023-01-11T15:18:53.104Z,11.20
2023-01-11T15:21:24.759Z,17.20
2023-01-11T15:23:54.147Z,12.50
2023-01-11T15:26:22.561Z,5.50
2023-01-11T15:28:51.458Z,2.97
2023-01-11T15:31:34.397Z,4.53
2023-01-11T15:34:03.825Z,2.47
2023-01-11T15:37:15.173Z,1.50
2023-01-11T15:39:46.331Z,5.20
2023-01-11T15:42:43.344Z,3.93
2023-01-11T15:45:36.054Z,2.33
2023-01-11T15:48:24.444Z,2.33
2023-01-11T15:51:16.611Z,2.30
2023-01-11T15:54:12.603Z,3.13
2023-01-11T15:57:14.408Z,2.93
2023-01-11T16:00:22.835Z,1.90
2023-01-11T16:03:22.479Z,2.67
2023-01-11T16:05:57.367Z,1.67
2023-01-11T16:08:31.053Z,2.23
2023-01-11T16:11:12.964Z,3.83
2023-01-11T16:13:55.611Z,4.07
2023-01-11T16:16:24.910Z,2.47
2023-01-11T16:18:54.966Z,2.97
2023-01-11T16:21:30.915Z,2.97
2023-01-11T16:23:57.532Z,2.90
2023-01-11T16:26:25.562Z,2.17
2023-01-11T16:28:56.257Z,1.60
2023-01-11T16:31:23.063Z,2.17
2023-01-11T16:33:50.121Z,3.53
2023-01-11T16:36:18.568Z,5.60
2023-01-11T16:38:52.147Z,4.57
2023-01-11T16:41:19.657Z,4.03
2023-01-11T16:43:51.507Z,7.73
2023-01-11T16:47:14.562Z,4.40
2023-01-11T16:49:42.793Z,4.97
2023-01-11T16:52:33.125Z,4.17
2023-01-11T16:55:02.133Z,7.47
2023-01-11T16:57:32.164Z,8.47
2023-01-11T17:00:03.786Z,11.30
2023-01-11T17:02:32.484Z,9.43
2023-01-11T17:04:59.043Z,10.77
2023-01-11T17:07:27.777Z,8.43
2023-01-11T17:10:16.822Z,8.20
2023-01-11T17:12:47.035Z,10.23
2023-01-11T17:15:25.211Z,6.60
2023-01-11T17:17:51.880Z,8.73
2023-01-11T17:20:21.554Z,5.93
2023-01-11T17:22:49.425Z,4.70
2023-01-11T17:25:19.749Z,4.97
2023-01-11T17:27:49.304Z,6.03
2023-01-11T17:30:18.027Z,5.23
2023-01-11T17:32:46.984Z,4.97
2023-01-11T17:35:16.878Z,8.07
2023-01-11T17:37:44.984Z,5.37
2023-01-11T17:40:27.583Z,5.67
2023-01-11T17:42:59.467Z,4.63
2023-01-11T17:45:26.252Z,5.30
2023-01-11T17:47:54.527Z,6.73
2023-01-11T17:50:26.023Z,6.30
2023-01-11T17:53:01.803Z,5.33
2023-01-11T17:55:30.112Z,6.77
2023-01-11T17:58:19.233Z,6.77
2023-01-11T18:01:03.105Z,6.63
2023-01-11T18:03:30.528Z,6.37
2023-01-11T18:05:58.848Z,7.40
2023-01-11T18:08:25.389Z,6.67
2023-01-11T18:10:56.008Z,5.47
2023-01-11T18:13:26.057Z,26.00
2023-01-11T18:15:52.690Z,15.00
2023-01-11T18:18:39.254Z,11.33
2023-01-11T18:21:30.458Z,19.13
2023-01-11T18:24:23.905Z,11.03
2023-01-11T18:27:05.841Z,8.80
2023-01-11T18:29:47.245Z,11.50
2023-01-11T18:32:14.830Z,11.63
2023-01-11T18:34:44.252Z,11.80
2023-01-11T18:37:11.415Z,12.50
2023-01-11T18:39:37.991Z,12.43
2023-01-11T18:42:06.255Z,11.13
2023-01-11T18:44:32.863Z,7.07
2023-01-11T18:46:59.481Z,6.37
2023-01-11T18:49:26.016Z,6.63
2023-01-11T18:51:52.749Z,8.17
2023-01-11T18:54:19.550Z,5.10
2023-01-11T18:56:46.088Z,11.63
2023-01-11T18:59:13.967Z,11.17
2023-01-11T19:01:54.302Z,7.57
2023-01-11T19:04:25.309Z,8.17
2023-01-11T19:06:51.898Z,7.07
2023-01-11T19:09:18.389Z,6.07
2023-01-11T19:11:44.916Z,8.50
2023-01-11T19:14:11.492Z,8.37
2023-01-11T19:16:39.491Z,10.10
2023-01-11T19:19:06.037Z,15.07
2023-01-11T19:21:32.577Z,9.27
2023-01-11T19:23:59.115Z,7.60
2023-01-11T19:26:25.652Z,6.70
2023-01-11T19:28:52.195Z,6.97
2023-01-11T19:31:18.785Z,7.43
2023-01-11T19:33:46.692Z,6.30
2023-01-11T19:36:13.353Z,5.63
2023-01-11T19:38:39.891Z,5.13
2023-01-11T19:41:08.226Z,4.57
2023-01-11T19:43:35.115Z,7.80
2023-01-11T19:46:02.118Z,6.67
2023-01-11T19:48:30.277Z,8.10
2023-01-11T19:51:01.856Z,7.97
2023-01-11T19:53:29.387Z,6.30
2023-01-11T19:56:00.396Z,4.60
2023-01-11T19:58:27.033Z,4.83
2023-01-11T20:00:53.555Z,3.43
2023-01-11T20:03:20.079Z,3.50
2023-01-11T20:05:46.601Z,4.47
2023-01-11T20:08:14.593Z,4.53
2023-01-11T20:10:41.169Z,3.87
2023-01-11T20:13:07.670Z,5.47
2023-01-11T20:15:34.288Z,4.33
2023-01-11T20:18:00.879Z,4.40
2023-01-11T20:20:27.446Z,4.83
2023-01-11T20:22:53.987Z,5.33
2023-01-11T20:25:21.894Z,3.50
2023-01-11T20:27:48.400Z,4.87
2023-01-11T20:30:15.449Z,4.17
2023-01-11T20:32:42.614Z,5.87
2023-01-11T20:35:09.982Z,3.63
2023-01-11T20:37:36.558Z,3.07
2023-01-11T20:40:03.554Z,3.57
2023-01-11T20:42:31.807Z,4.30
2023-01-11T20:44:58.325Z,5.13
2023-01-11T20:47:24.906Z,4.00
2023-01-11T20:49:51.424Z,4.67
2023-01-11T20:52:17.986Z,4.10
2023-01-11T20:54:44.472Z,5.40
2023-01-11T20:57:11.000Z,6.93
2023-01-11T20:59:38.857Z,6.27
2023-01-11T21:02:05.426Z,3.93
2023-01-11T21:04:31.903Z,4.63
2023-01-11T21:06:58.440Z,8.43
2023-01-11T21:09:24.978Z,7.17
2023-01-11T21:11:51.559Z,7.37
2023-01-11T21:14:18.103Z,4.90
2023-01-11T21:16:46.034Z,4.90
2023-01-11T21:19:14.168Z,8.10
2023-01-11T21:21:41.330Z,7.37
2023-01-11T21:24:11.461Z,13.13
2023-01-11T21:26:38.198Z,11.93
2023-01-11T21:29:05.538Z,67.33
2023-01-11T21:31:34.115Z,36.97
2023-01-11T21:34:03.267Z,18.63
2023-01-11T21:36:31.480Z,10.67
2023-01-11T21:38:59.470Z,6.97
2023-01-11T21:41:27.573Z,6.87
2023-01-11T21:43:54.113Z,6.33
2023-01-11T21:46:20.605Z,7.13
2023-01-11T21:48:47.125Z,9.43
2023-01-11T21:51:16.921Z,6.60
2023-01-11T21:53:43.545Z,3.73
2023-01-11T21:56:10.069Z,4.63
2023-01-11T21:58:36.604Z,3.70
2023-01-11T22:01:09.553Z,2.83
2023-01-11T22:03:36.143Z,3.33
2023-01-11T22:06:04.121Z,4.63
2023-01-11T22:08:34.495Z,5.80
2023-01-11T22:11:02.504Z,8.90
2023-01-11T22:13:29.527Z,23.37
2023-01-11T22:16:00.332Z,15.67
2023-01-11T22:18:27.102Z,15.13
2023-01-11T22:20:53.979Z,14.23
2023-01-11T22:23:20.524Z,17.57
2023-01-11T22:25:48.425Z,19.17
2023-01-11T22:28:16.367Z,35.90
2023-01-11T22:30:43.014Z,21.60
2023-01-11T22:33:09.525Z,28.50
2023-01-11T22:35:36.084Z,17.03
2023-01-11T22:38:02.591Z,8.63
2023-01-11T22:40:29.326Z,3.93
2023-01-11T22:42:57.183Z,17.83
2023-01-11T22:45:23.780Z,8.57
2023-01-11T22:47:50.379Z,6.67
2023-01-11T22:50:17.075Z,3.97
2023-01-11T22:52:43.577Z,5.17
2023-01-11T22:55:10.189Z,5.37
2023-01-11T22:57:36.695Z,4.33
2023-01-11T23:00:06.255Z,3.30
2023-01-11T23:02:32.854Z,3.40
2023-01-11T23:04:59.357Z,6.80
2023-01-11T23:07:25.864Z,8.57
2023-01-11T23:09:52.370Z,3.90
2023-01-11T23:12:18.926Z,4.40
2023-01-11T23:14:45.471Z,7.50
2023-01-11T23:17:13.367Z,3.93
2023-01-11T23:19:40.947Z,5.13
2023-01-11T23:22:08.993Z,6.10
2023-01-11T23:24:36.159Z,3.17
2023-01-11T23:27:02.736Z,6.73
2023-01-11T23:29:29.773Z,4.57
2023-01-11T23:31:56.363Z,5.53
2023-01-11T23:34:24.324Z,4.33
2023-01-11T23:36:50.882Z,3.93
2023-01-11T23:39:17.625Z,5.07
2023-01-11T23:41:44.426Z,6.90
2023-01-11T23:44:12.539Z,5.13
2023-01-11T23:46:40.031Z,4.00
2023-01-11T23:49:08.270Z,4.67
2023-01-11T23:51:37.845Z,6.37
2023-01-11T23:54:05.776Z,5.60
2023-01-11T23:56:33.571Z,4.07
2023-01-11T23:59:00.429Z,6.67
